Haicheng, China
Current Conditions -  °F | °C
As of 11:30 PM on Tuesday 21 Oct 2014 (Local Time) from ZYTX Reporting Station
Clear Clear  
Wind Chill: 37°   Ceiling: Unl
Heat Index: 37°   Visibility: 6mi
Dew Point:   Wind: 2mph
Humidity: 26%   Direction: 30°NNE
Pressure: 30.27"   Gusts: NA
Location:  40.86°N, 122.74°E
Report Text: ZYTX 211530Z 03001MPS CAVOK 03/M15 Q1025 NOSIG
Loading
Personal Weather Stations






























Interactive Weather Map New forecast layout! Learn more

10-Day Weather Forecast

Advertisements
Track Severe Weather on mobile